Time;durP1;ratioP1;P1;durP2;ratioP2;P2;SDS_P1;SDS_P2;PMS_P1;PMS_P2;Temp;Humidity;BMP_temperature;BMP_pressure;BME280_temperature;BME280_humidity;BME280_pressure;Samples;Min_cycle;Max_cycle;Signal;HPM_P1;HPM_P2
2022/11/13 00:00:41;;;;;;;17.53;13.23;;;;;;;2.28;100.00;100804.88;6246172;23;20692;-79
2022/11/13 00:03:28;;;;;;;14.53;12.80;;;;;;;2.26;100.00;100806.81;6246540;23;20511;-80
2022/11/13 00:06:15;;;;;;;14.97;12.13;;;;;;;2.19;100.00;100811.00;6224022;23;20160;-79
2022/11/13 00:09:00;;;;;;;13.93;11.90;;;;;;;2.15;100.00;100809.56;6246192;23;20160;-79
2022/11/13 00:11:45;;;;;;;12.73;11.37;;;;;;;2.17;100.00;100813.75;6245868;23;20175;-79
2022/11/13 00:14:30;;;;;;;15.43;11.60;;;;;;;2.17;100.00;100808.47;6246079;23;20207;-80
2022/11/13 00:17:16;;;;;;;15.60;11.87;;;;;;;2.13;100.00;100812.38;6246212;23;20235;-80
2022/11/13 00:20:01;;;;;;;13.17;11.33;;;;;;;2.10;100.00;100811.81;6246253;23;20241;-79
2022/11/13 00:22:46;;;;;;;14.13;10.63;;;;;;;2.23;100.00;100812.38;6246066;23;20244;-79
2022/11/13 00:25:34;;;;;;;14.53;11.33;;;;;;;2.19;100.00;100806.50;6246114;23;20156;-78
2022/11/13 00:28:19;;;;;;;14.63;11.33;;;;;;;2.18;100.00;100804.88;6246105;23;20242;-78
2022/11/13 00:31:06;;;;;;;13.00;10.70;;;;;;;2.17;100.00;100807.63;6245933;23;20160;-79
2022/11/13 00:33:51;;;;;;;14.13;11.37;;;;;;;2.20;100.00;100804.72;6223611;23;20528;-79
2022/11/13 00:36:58;;;;;;;12.03;10.27;;;;;;;2.16;100.00;100812.09;6249142;23;20212;-80
2022/11/13 00:39:43;;;;;;;12.53;10.47;;;;;;;2.14;100.00;100803.47;6249228;23;20164;-79
2022/11/13 00:42:28;;;;;;;13.30;10.67;;;;;;;2.15;100.00;100799.84;6248653;23;20180;-79
2022/11/13 00:45:14;;;;;;;13.47;10.27;;;;;;;2.21;100.00;100801.09;6248609;23;20203;-79
2022/11/13 00:47:59;;;;;;;13.47;10.43;;;;;;;2.25;100.00;100796.38;6248295;23;20164;-79
2022/11/13 00:50:44;;;;;;;12.40;10.57;;;;;;;2.26;100.00;100803.31;6248396;23;20613;-80
2022/11/13 00:53:30;;;;;;;11.90;10.23;;;;;;;2.27;100.00;100797.06;6248527;23;20487;-79
2022/11/13 00:56:15;;;;;;;13.23;10.30;;;;;;;2.26;100.00;100804.16;6248480;23;20647;-79
2022/11/13 00:59:00;;;;;;;12.63;10.07;;;;;;;2.21;100.00;100801.94;6248657;23;20578;-79
2022/11/13 01:01:46;;;;;;;10.80;9.67;;;;;;;2.20;100.00;100802.06;6248159;23;20715;-80
2022/11/13 01:04:31;;;;;;;11.90;10.27;;;;;;;2.08;100.00;100800.53;6248489;23;20163;-79
2022/11/13 01:07:16;;;;;;;11.77;10.03;;;;;;;2.11;100.00;100808.19;6247689;23;20199;-80
2022/11/13 01:10:05;;;;;;;13.53;10.20;;;;;;;2.14;100.00;100808.75;6248159;23;20240;-79
2022/11/13 01:12:50;;;;;;;13.20;10.97;;;;;;;2.12;100.00;100802.75;6248088;23;20160;-79
2022/11/13 01:15:40;;;;;;;15.37;11.30;;;;;;;2.08;100.00;100797.88;6248678;23;20160;-80
2022/11/13 01:18:25;;;;;;;15.73;12.37;;;;;;;2.11;100.00;100798.44;6226029;23;20192;-81
2022/11/13 01:21:12;;;;;;;17.37;13.10;;;;;;;2.23;100.00;100796.53;6247765;23;20528;-79
2022/11/13 01:23:57;;;;;;;15.23;13.63;;;;;;;2.12;100.00;100802.75;6225747;23;20159;-79
2022/11/13 01:26:43;;;;;;;16.33;12.57;;;;;;;2.08;100.00;100804.00;6247967;23;20160;-79
2022/11/13 01:29:28;;;;;;;17.23;12.97;;;;;;;2.18;100.00;100796.94;6247809;23;20164;-79
2022/11/13 01:32:13;;;;;;;16.40;12.80;;;;;;;2.26;100.00;100798.88;6247969;23;20160;-80
2022/11/13 01:34:58;;;;;;;16.57;13.07;;;;;;;2.28;100.00;100793.47;6248189;23;20200;-79
2022/11/13 01:37:43;;;;;;;16.50;12.70;;;;;;;2.32;100.00;100794.84;6248973;23;20160;-80
2022/11/13 01:40:28;;;;;;;17.80;13.10;;;;;;;2.37;100.00;100789.97;6248235;23;20231;-79
2022/11/13 01:43:31;;;;;;;13.47;11.43;;;;;;;2.40;100.00;100797.63;6248159;23;20163;-79
2022/11/13 01:46:21;;;;;;;15.47;12.87;;;;;;;2.46;100.00;100807.66;6225241;23;20161;-80
2022/11/13 01:49:09;;;;;;;14.07;11.93;;;;;;;2.44;100.00;100801.66;6248052;23;20219;-80
2022/11/13 01:52:00;;;;;;;15.07;11.83;;;;;;;2.37;100.00;100803.22;6247900;23;20164;-80
2022/11/13 01:55:08;;;;;;;16.73;12.83;;;;;;;2.38;100.00;100805.69;6247492;23;20164;-80
2022/11/13 01:57:53;;;;;;;14.40;12.10;;;;;;;2.38;100.00;100794.31;6247962;23;20155;-80
2022/11/13 02:00:38;;;;;;;15.77;12.43;;;;;;;2.40;100.00;100801.13;6248044;23;20191;-79
2022/11/13 02:03:23;;;;;;;14.27;12.10;;;;;;;2.42;100.00;100796.53;6248150;23;20613;-79
2022/11/13 02:06:08;;;;;;;15.03;12.10;;;;;;;2.44;100.00;100788.44;6224945;23;20223;-79
2022/11/13 02:08:54;;;;;;;14.63;12.37;;;;;;;2.47;100.00;100778.41;6224943;23;20179;-79
2022/11/13 02:11:40;;;;;;;14.47;12.10;;;;;;;2.51;100.00;100776.34;6247708;23;20532;-79
2022/11/13 02:14:27;;;;;;;16.30;12.50;;;;;;;2.57;100.00;100778.41;6225200;23;20233;-79
2022/11/13 02:17:16;;;;;;;13.93;11.53;;;;;;;2.64;100.00;100771.59;6247586;23;20520;-78
2022/11/13 02:20:03;;;;;;;13.97;11.53;;;;;;;2.66;100.00;100766.97;6247497;23;20211;-79
2022/11/13 02:23:08;;;;;;;13.03;11.13;;;;;;;2.75;100.00;100765.31;6225016;23;20239;-79
2022/11/13 02:25:53;;;;;;;13.97;11.67;;;;;;;2.79;100.00;100764.88;6224908;23;20168;-79
2022/11/13 02:28:38;;;;;;;13.90;11.43;;;;;;;2.87;100.00;100764.16;6247449;23;20624;-79
2022/11/13 02:31:24;;;;;;;13.47;11.50;;;;;;;2.89;100.00;100754.28;6247566;23;20296;-79
2022/11/13 02:34:09;;;;;;;14.77;11.60;;;;;;;3.02;100.00;100752.16;6247607;23;20199;-79
2022/11/13 02:36:54;;;;;;;15.47;12.23;;;;;;;2.99;100.00;100755.06;6248044;23;20233;-80
2022/11/13 02:39:40;;;;;;;14.77;11.63;;;;;;;2.99;100.00;100761.19;6247889;23;20559;-79
2022/11/13 02:42:25;;;;;;;14.73;11.93;;;;;;;3.06;100.00;100748.25;6247668;23;20517;-78
2022/11/13 02:45:10;;;;;;;14.30;11.73;;;;;;;3.11;100.00;100751.28;6247699;23;20207;-79
2022/11/13 02:47:58;;;;;;;15.20;11.97;;;;;;;3.15;100.00;100743.88;6247841;23;20510;-78
2022/11/13 02:50:44;;;;;;;14.30;12.00;;;;;;;3.25;100.00;100752.63;6247931;23;20212;-79
2022/11/13 02:53:29;;;;;;;19.13;13.10;;;;;;;3.22;100.00;100748.44;6248055;23;20160;-79
2022/11/13 02:56:14;;;;;;;23.93;13.60;;;;;;;3.24;100.00;100746.50;6247853;23;20632;-79
2022/11/13 02:59:00;;;;;;;24.20;14.73;;;;;;;3.37;100.00;100746.16;6247738;23;20207;-79
2022/11/13 03:01:46;;;;;;;29.93;15.03;;;;;;;3.36;100.00;100742.66;6247858;23;20259;-79
2022/11/13 03:04:31;;;;;;;26.77;15.00;;;;;;;3.37;100.00;100741.69;6247998;23;20163;-79
2022/11/13 03:07:36;;;;;;;34.97;16.27;;;;;;;3.39;100.00;100742.41;6248310;23;20203;-79
2022/11/13 03:10:22;;;;;;;33.47;16.77;;;;;;;3.39;100.00;100744.22;6225570;23;20156;-79
2022/11/13 03:13:07;;;;;;;32.07;16.43;;;;;;;3.48;100.00;100736.22;6225181;23;20156;-79
2022/11/13 03:15:52;;;;;;;32.60;16.87;;;;;;;3.49;100.00;100742.34;6248078;23;20616;-79
2022/11/13 03:18:37;;;;;;;29.37;17.30;;;;;;;3.53;100.00;100735.78;6247932;23;20196;-78
2022/11/13 03:21:23;;;;;;;39.37;18.47;;;;;;;3.56;100.00;100738.13;6224912;23;20187;-78
2022/11/13 03:24:08;;;;;;;36.43;17.73;;;;;;;3.57;100.00;100738.94;6247630;23;20280;-79
2022/11/13 03:26:53;;;;;;;39.03;18.57;;;;;;;3.55;100.00;100731.13;6247411;23;20664;-79
2022/11/13 03:29:38;;;;;;;40.97;19.77;;;;;;;3.65;100.00;100731.09;6247606;23;20215;-79
2022/11/13 03:32:23;;;;;;;51.90;19.27;;;;;;;3.70;100.00;100723.53;6247730;23;20159;-79
2022/11/13 03:35:08;;;;;;;65.10;20.80;;;;;;;3.64;100.00;100722.31;6247886;23;20168;-79
2022/11/13 03:37:54;;;;;;;44.53;20.40;;;;;;;3.67;100.00;100723.84;6248513;23;20164;-78
2022/11/13 03:40:39;;;;;;;69.53;20.30;;;;;;;3.71;100.00;100717.25;6226142;23;20160;-79
2022/11/13 03:43:24;;;;;;;60.50;19.47;;;;;;;3.76;100.00;100718.47;6225989;23;20597;-79
2022/11/13 03:46:09;;;;;;;65.00;19.63;;;;;;;3.75;100.00;100715.97;6248181;23;20156;-79
2022/11/13 03:48:55;;;;;;;77.90;18.57;;;;;;;3.74;100.00;100716.94;6247210;23;20160;-80
2022/11/13 03:51:40;;;;;;;71.80;18.67;;;;;;;3.64;100.00;100724.16;6247614;23;20494;-79
2022/11/13 03:54:25;;;;;;;88.23;19.00;;;;;;;3.63;100.00;100720.66;6247974;23;20156;-79
2022/11/13 03:57:11;;;;;;;81.37;18.07;;;;;;;3.67;100.00;100713.22;6247729;23;20210;-79
2022/11/13 03:59:56;;;;;;;88.90;18.57;;;;;;;3.38;100.00;100714.22;6247392;23;20157;-80
2022/11/13 04:02:42;;;;;;;62.60;19.30;;;;;;;3.39;100.00;100718.56;6247508;23;20188;-79
2022/11/13 04:05:27;;;;;;;95.60;19.30;;;;;;;3.39;100.00;100715.91;6247608;23;20215;-79
2022/11/13 04:08:12;;;;;;;110.00;18.87;;;;;;;3.40;100.00;100720.22;6224350;23;20323;-79
2022/11/13 04:11:10;;;;;;;77.00;18.20;;;;;;;3.35;100.00;100716.34;6247008;23;20203;-78
2022/11/13 04:13:55;;;;;;;106.27;20.07;;;;;;;3.40;100.00;100711.44;6224740;23;20203;-79
2022/11/13 04:16:41;;;;;;;52.83;19.27;;;;;;;3.31;100.00;100709.69;6247481;23;20156;-79
2022/11/13 04:19:26;;;;;;;67.80;20.10;;;;;;;3.27;100.00;100703.81;6225762;23;20165;-79
2022/11/13 04:22:11;;;;;;;74.53;19.83;;;;;;;3.33;100.00;100711.19;6248171;23;20264;-79
2022/11/13 04:24:56;;;;;;;73.93;20.47;;;;;;;3.37;100.00;100707.25;6247712;23;20164;-79
2022/11/13 04:27:42;;;;;;;55.30;19.30;;;;;;;3.39;100.00;100701.81;6248026;23;20164;-80
2022/11/13 04:30:27;;;;;;;52.87;20.20;;;;;;;3.41;100.00;100708.63;6247978;23;20207;-79
2022/11/13 04:33:12;;;;;;;52.30;19.23;;;;;;;3.46;100.00;100706.38;6247908;23;20613;-80
2022/11/13 04:35:58;;;;;;;95.70;20.13;;;;;;;3.43;100.00;100713.78;6247734;23;20160;-79
2022/11/13 04:38:43;;;;;;;115.23;21.37;;;;;;;3.47;100.00;100707.22;6225756;23;20156;-80
2022/11/13 04:44:39;;;;;;;83.30;22.53;;;;;;;3.30;100.00;100703.53;6247404;23;20511;-80
2022/11/13 04:47:24;;;;;;;81.70;21.47;;;;;;;3.18;100.00;100710.00;6247243;23;20164;-79
2022/11/13 04:50:10;;;;;;;65.87;21.23;;;;;;;3.27;100.00;100713.56;6247894;23;20247;-80
2022/11/13 04:52:55;;;;;;;67.03;20.63;;;;;;;3.25;100.00;100720.84;6247478;23;20545;-79
2022/11/13 04:55:40;;;;;;;40.93;21.33;;;;;;;3.28;100.00;100726.69;6247749;23;20163;-79
2022/11/13 04:58:26;;;;;;;50.40;21.10;;;;;;;3.30;100.00;100735.31;6247335;23;20588;-79
2022/11/13 05:01:12;;;;;;;100.77;23.17;;;;;;;3.36;100.00;100718.81;6247343;23;20184;-79
2022/11/13 05:03:57;;;;;;;89.23;22.03;;;;;;;3.24;100.00;100717.38;6247434;23;20241;-80
2022/11/13 05:06:42;;;;;;;87.00;22.83;;;;;;;3.28;100.00;100724.03;6246917;23;20250;-80
2022/11/13 05:09:27;;;;;;;88.03;21.83;;;;;;;3.24;100.00;100724.47;6246880;23;20160;-80
2022/11/13 05:12:13;;;;;;;49.77;21.30;;;;;;;3.15;100.00;100718.25;6247585;23;20160;-79
2022/11/13 05:14:58;;;;;;;67.73;22.53;;;;;;;3.20;100.00;100737.19;6225181;23;20168;-80
2022/11/13 05:17:43;;;;;;;34.63;21.93;;;;;;;3.25;100.00;100734.09;6247159;23;20160;-79
2022/11/13 05:20:28;;;;;;;42.20;22.17;;;;;;;3.31;100.00;100744.13;6247763;23;20161;-79
2022/11/13 05:23:14;;;;;;;41.03;23.40;;;;;;;3.31;100.00;100734.31;6249319;23;20184;-79
2022/11/13 05:26:10;;;;;;;40.63;22.73;;;;;;;3.40;100.00;100737.94;6249345;23;20156;-79
2022/11/13 05:28:59;;;;;;;41.00;23.17;;;;;;;3.39;100.00;100738.91;6249483;23;20176;-79
2022/11/13 05:31:44;;;;;;;39.10;23.00;;;;;;;3.44;100.00;100726.91;6226494;23;20222;-79
2022/11/13 05:34:29;;;;;;;36.83;21.93;;;;;;;3.50;100.00;100734.22;6249627;23;20539;-79
2022/11/13 05:37:14;;;;;;;37.90;23.43;;;;;;;3.50;100.00;100728.94;6250233;23;20227;-79
2022/11/13 05:40:00;;;;;;;33.70;23.27;;;;;;;3.59;100.00;100729.91;6250572;23;20160;-79
2022/11/13 05:42:45;;;;;;;38.13;22.50;;;;;;;3.64;100.00;100732.91;6249400;23;20184;-79
2022/11/13 05:45:30;;;;;;;38.83;22.33;;;;;;;3.63;100.00;100736.56;6249443;23;20160;-79
2022/11/13 05:48:15;;;;;;;57.73;24.03;;;;;;;3.66;100.00;100736.25;6226630;23;20219;-79
2022/11/13 05:51:15;;;;;;;48.87;22.10;;;;;;;3.69;100.00;100737.75;6248270;23;20268;-79
2022/11/13 05:54:00;;;;;;;39.13;22.43;;;;;;;3.73;100.00;100737.34;6248420;23;20165;-79
2022/11/13 05:56:45;;;;;;;40.00;23.73;;;;;;;3.75;100.00;100742.47;6249020;23;20165;-79
2022/11/13 05:59:30;;;;;;;38.20;23.83;;;;;;;3.80;100.00;100746.34;6248853;23;20160;-79
2022/11/13 06:02:16;;;;;;;39.10;22.93;;;;;;;3.86;100.00;100742.28;6248606;23;20188;-79
2022/11/13 06:05:01;;;;;;;32.03;22.37;;;;;;;3.89;100.00;100742.81;6248911;23;20163;-79
2022/11/13 06:07:50;;;;;;;46.97;23.17;;;;;;;3.93;100.00;100738.03;6249006;23;20243;-79
2022/11/13 06:10:35;;;;;;;40.37;22.13;;;;;;;3.94;100.00;100737.88;6249201;23;20160;-79
2022/11/13 06:13:20;;;;;;;35.90;22.50;;;;;;;4.03;100.00;100738.81;6249097;23;20254;-79
2022/11/13 06:16:18;;;;;;;45.60;23.67;;;;;;;4.02;100.00;100737.13;6249203;23;20503;-79
2022/11/13 06:19:05;;;;;;;44.57;23.33;;;;;;;4.17;100.00;100743.59;6226423;23;20227;-79
2022/11/13 06:21:50;;;;;;;40.57;23.87;;;;;;;4.20;100.00;100743.25;6248281;23;20231;-79
2022/11/13 06:24:36;;;;;;;37.93;23.77;;;;;;;4.21;100.00;100734.34;6248252;23;20156;-79
2022/11/13 06:27:21;;;;;;;37.10;24.90;;;;;;;4.26;100.00;100739.19;6248126;23;20160;-79
2022/11/13 06:30:07;;;;;;;40.20;25.43;;;;;;;4.30;100.00;100736.06;6248321;23;20660;-79
2022/11/13 06:32:53;;;;;;;34.97;25.73;;;;;;;4.41;100.00;100737.66;6247922;23;20163;-79
2022/11/13 06:35:38;;;;;;;36.87;24.50;;;;;;;4.45;100.00;100736.38;6248424;23;20156;-79
2022/11/13 06:38:23;;;;;;;33.03;24.20;;;;;;;4.54;100.00;100742.56;6249448;23;20156;-79
2022/11/13 06:41:10;;;;;;;52.53;23.57;;;;;;;4.56;100.00;100740.59;6250107;23;20160;-79
2022/11/13 06:43:56;;;;;;;44.23;23.50;;;;;;;4.60;100.00;100739.31;6249225;23;20219;-79
2022/11/13 06:46:47;;;;;;;37.57;23.73;;;;;;;4.58;100.00;100730.66;6248931;23;20207;-79
2022/11/13 06:49:32;;;;;;;41.40;23.80;;;;;;;4.71;100.00;100731.09;6248318;23;20199;-79
2022/11/13 06:52:18;;;;;;;37.07;22.20;;;;;;;4.78;100.00;100724.16;6248534;23;20207;-79
2022/11/13 06:55:03;;;;;;;29.63;22.67;;;;;;;4.81;100.00;100723.84;6248869;23;20180;-80
2022/11/13 06:57:48;;;;;;;30.83;23.63;;;;;;;4.95;100.00;100723.28;6249115;23;20284;-79
2022/11/13 07:00:34;;;;;;;34.93;23.77;;;;;;;5.02;100.00;100732.31;6248134;23;20172;-79
2022/11/13 07:03:24;;;;;;;30.17;22.60;;;;;;;5.16;100.00;100720.25;6248851;23;20187;-79
2022/11/13 07:06:12;;;;;;;32.60;22.17;;;;;;;5.21;100.00;100720.63;6248319;23;20156;-80
2022/11/13 07:08:57;;;;;;;27.80;22.30;;;;;;;5.32;100.00;100725.63;6248896;23;20546;-79
2022/11/13 07:11:43;;;;;;;35.87;22.73;;;;;;;5.26;100.00;100719.16;6248629;23;20203;-80
2022/11/13 07:14:28;;;;;;;27.63;21.57;;;;;;;5.44;100.00;100718.22;6248843;23;20160;-79
2022/11/13 07:17:13;;;;;;;30.90;23.47;;;;;;;5.55;100.00;100720.59;6248788;23;20195;-79
2022/11/13 07:19:59;;;;;;;31.37;23.17;;;;;;;5.66;100.00;100717.63;6248988;23;20160;-79
2022/11/13 07:22:44;;;;;;;32.53;23.20;;;;;;;5.74;100.00;100722.97;6248272;23;20239;-79
2022/11/13 07:25:29;;;;;;;31.13;22.37;;;;;;;5.77;100.00;100714.69;6247813;23;20207;-79
2022/11/13 07:28:15;;;;;;;31.03;23.53;;;;;;;5.86;100.00;100716.38;6247969;23;20180;-79
2022/11/13 07:31:00;;;;;;;27.17;22.27;;;;;;;6.10;100.00;100720.94;6248291;23;20590;-79
2022/11/13 07:33:47;;;;;;;29.83;23.60;;;;;;;6.25;100.00;100719.28;6248379;23;20164;-79
2022/11/13 07:36:32;;;;;;;32.07;22.77;;;;;;;6.32;100.00;100717.63;6249063;23;20613;-79
2022/11/13 07:39:18;;;;;;;32.07;23.23;;;;;;;6.44;100.00;100713.63;6249128;23;20231;-79
2022/11/13 07:42:03;;;;;;;31.40;24.70;;;;;;;6.62;100.00;100724.91;6226870;23;20190;-79
2022/11/13 07:44:49;;;;;;;30.17;24.03;;;;;;;6.68;100.00;100712.78;6248720;23;20244;-79
2022/11/13 07:47:39;;;;;;;33.13;26.37;;;;;;;6.80;100.00;100714.09;6249246;23;20164;-79
2022/11/13 07:50:26;;;;;;;37.10;30.07;;;;;;;6.96;100.00;100722.06;6249358;23;20156;-80
2022/11/13 07:53:12;;;;;;;33.53;27.20;;;;;;;7.15;100.00;100730.66;6249268;23;20193;-79
2022/11/13 07:55:59;;;;;;;51.50;33.13;;;;;;;7.21;100.00;100730.00;6249098;23;20210;-80
2022/11/13 07:58:44;;;;;;;37.63;26.10;;;;;;;7.28;100.00;100729.13;6248484;23;20160;-80
2022/11/13 08:01:30;;;;;;;32.20;26.57;;;;;;;7.25;100.00;100726.81;6249316;23;20207;-80
2022/11/13 08:04:15;;;;;;;27.70;24.30;;;;;;;7.37;100.00;100729.94;6249308;23;20156;-80
2022/11/13 08:07:00;;;;;;;25.50;22.50;;;;;;;7.50;100.00;100727.56;6248652;23;20199;-79
2022/11/13 08:09:45;;;;;;;28.87;25.57;;;;;;;7.55;100.00;100727.03;6248631;23;20219;-80
2022/11/13 08:12:31;;;;;;;62.93;23.70;;;;;;;7.68;100.00;100721.97;6249320;23;20160;-80
2022/11/13 08:15:16;;;;;;;38.07;23.63;;;;;;;7.71;100.00;100726.94;6249544;23;20160;-80
2022/11/13 08:18:02;;;;;;;25.93;22.27;;;;;;;7.68;100.00;100720.16;6226658;23;20337;-80
2022/11/13 08:20:47;;;;;;;27.20;21.77;;;;;;;7.68;100.00;100722.81;6226428;23;20163;-80
2022/11/13 08:23:33;;;;;;;26.37;22.10;;;;;;;7.66;100.00;100719.47;6248687;23;20519;-79
2022/11/13 08:26:18;;;;;;;28.93;22.33;;;;;;;7.83;100.00;100717.56;6248865;23;20455;-80
2022/11/13 08:29:03;;;;;;;31.43;22.87;;;;;;;7.92;100.00;100719.19;6248820;23;20160;-79
2022/11/13 08:31:49;;;;;;;33.77;24.27;;;;;;;8.02;100.00;100714.44;6249056;23;20160;-79
2022/11/13 08:34:36;;;;;;;35.43;22.90;;;;;;;8.16;100.00;100724.38;6249899;23;20207;-80
2022/11/13 08:37:21;;;;;;;25.90;22.90;;;;;;;8.18;100.00;100724.16;6227922;23;20160;-80
2022/11/13 08:40:08;;;;;;;27.50;24.50;;;;;;;8.26;100.00;100716.94;6250611;23;20609;-80
2022/11/13 08:43:00;;;;;;;35.07;27.07;;;;;;;8.27;100.00;100710.59;6250745;23;20648;-80
2022/11/13 08:45:46;;;;;;;33.10;28.27;;;;;;;8.36;100.00;100714.88;6227604;23;20220;-80
2022/11/13 08:48:31;;;;;;;30.70;26.70;;;;;;;8.34;100.00;100714.25;6250327;23;20197;-79
2022/11/13 08:51:17;;;;;;;28.20;24.97;;;;;;;8.34;100.00;100716.91;6249565;23;20160;-80
2022/11/13 08:54:02;;;;;;;26.83;23.93;;;;;;;8.29;100.00;100711.28;6249457;23;20640;-80
2022/11/13 08:56:48;;;;;;;27.10;24.07;;;;;;;8.32;100.00;100712.75;6251836;23;20172;-81
2022/11/13 08:59:40;;;;;;;29.43;25.17;;;;;;;8.32;100.00;100712.75;6230621;23;20608;-80
2022/11/13 09:02:25;;;;;;;28.20;25.27;;;;;;;8.37;100.00;100721.91;6251859;23;20183;-80
2022/11/13 09:05:11;;;;;;;28.97;25.60;;;;;;;8.60;100.00;100718.38;6229655;23;20215;-80
2022/11/13 09:07:58;;;;;;;42.63;31.40;;;;;;;8.84;100.00;100724.31;6251619;23;20260;-80
2022/11/13 09:10:43;;;;;;;27.37;24.40;;;;;;;8.71;100.00;100720.63;6251305;23;20156;-80
2022/11/13 09:13:29;;;;;;;27.50;24.33;;;;;;;8.91;100.00;100705.72;6252324;23;20168;-80
2022/11/13 09:16:15;;;;;;;29.57;24.77;;;;;;;8.34;100.00;100716.09;6250545;23;20219;-80
2022/11/13 09:19:00;;;;;;;27.33;24.13;;;;;;;8.47;100.00;100716.31;6251622;23;20163;-80
2022/11/13 09:21:46;;;;;;;33.80;30.17;;;;;;;8.52;100.00;100710.44;6251616;23;20222;-80
2022/11/13 09:24:31;;;;;;;33.23;29.23;;;;;;;8.34;100.00;100708.06;6250142;23;20214;-80
2022/11/13 09:27:17;;;;;;;35.77;31.77;;;;;;;8.28;100.00;100714.94;6251208;23;20208;-80
2022/11/13 09:30:02;;;;;;;29.60;26.37;;;;;;;8.28;100.00;100712.25;6251270;23;20163;-80
2022/11/13 09:32:47;;;;;;;28.80;25.00;;;;;;;8.23;100.00;100714.63;6251865;23;20681;-79
2022/11/13 09:35:33;;;;;;;29.77;25.60;;;;;;;8.23;100.00;100698.59;6252506;23;20256;-80
2022/11/13 09:38:18;;;;;;;30.57;26.63;;;;;;;8.32;100.00;100700.25;6252935;23;20172;-80
2022/11/13 09:41:08;;;;;;;30.30;26.73;;;;;;;8.42;100.00;100707.16;6253686;23;20543;-80
2022/11/13 09:43:56;;;;;;;29.13;25.27;;;;;;;8.57;100.00;100700.03;6252783;23;20265;-79
2022/11/13 09:47:18;;;;;;;24.27;21.67;;;;;;;8.76;100.00;100697.69;6230639;23;20163;-80
2022/11/13 09:50:09;;;;;;;25.13;21.27;;;;;;;9.23;100.00;100689.34;6252199;23;20192;-80
2022/11/13 09:52:55;;;;;;;23.33;19.80;;;;;;;9.41;100.00;100688.94;6251980;23;20203;-80
2022/11/13 09:55:49;;;;;;;22.37;19.70;;;;;;;9.67;100.00;100691.94;6252477;23;20180;-80
2022/11/13 09:59:01;;;;;;;21.30;19.10;;;;;;;9.87;100.00;100685.97;6229785;23;20165;-80
2022/11/13 10:02:06;;;;;;;20.73;18.03;;;;;;;10.10;100.00;100679.44;6230173;23;20215;-80
2022/11/13 10:05:20;;;;;;;22.27;19.97;;;;;;;10.23;100.00;100684.09;6196625;23;20267;-80
2022/11/13 10:08:13;;;;;;;45.77;41.03;;;;;;;10.36;100.00;100681.53;6220102;23;20204;-80
2022/11/13 10:11:13;;;;;;;80.00;71.80;;;;;;;10.47;100.00;100669.47;6222220;23;20237;-80
2022/11/13 10:14:02;;;;;;;32.77;29.37;;;;;;;10.68;100.00;100665.94;6221270;23;20161;-81
2022/11/13 10:16:56;;;;;;;19.20;17.20;;;;;;;10.79;100.00;100649.31;6218606;23;20221;-81
2022/11/13 10:19:59;;;;;;;17.93;16.13;;;;;;;11.00;100.00;100652.75;6217715;23;20645;-81
2022/11/13 10:22:54;;;;;;;17.13;15.43;;;;;;;11.20;100.00;100636.75;6216265;23;20187;-81
2022/11/13 10:25:41;;;;;;;16.80;15.00;;;;;;;11.50;100.00;100637.31;6194733;23;20618;-81
2022/11/13 10:28:27;;;;;;;16.40;14.80;;;;;;;11.52;100.00;100629.06;6217368;23;20161;-80
2022/11/13 10:31:46;;;;;;;17.17;14.83;;;;;;;11.79;100.00;100633.50;6217006;23;20169;-81
2022/11/13 10:34:32;;;;;;;14.87;13.27;;;;;;;11.78;100.00;100619.25;6216870;23;20164;-82
2022/11/13 10:37:44;;;;;;;14.17;12.63;;;;;;;11.94;100.00;100610.00;6217168;23;20272;-81
2022/11/13 10:40:31;;;;;;;12.73;11.30;;;;;;;12.21;100.00;100614.34;6215558;23;20229;-82
2022/11/13 10:43:22;;;;;;;13.17;11.77;;;;;;;12.30;100.00;100604.22;6216086;23;20184;-82
2022/11/13 10:46:19;;;;;;;12.27;10.97;;;;;;;12.41;100.00;100592.81;6216836;23;20205;-82
2022/11/13 10:49:19;;;;;;;13.40;11.97;;;;;;;12.45;100.00;100591.41;6216941;23;20160;-82
2022/11/13 10:52:17;;;;;;;15.57;14.00;;;;;;;12.44;100.00;100587.03;6216400;23;20178;-81
2022/11/13 10:55:15;;;;;;;16.53;14.73;;;;;;;12.38;100.00;100577.13;6216569;23;20504;-81
2022/11/13 10:58:03;;;;;;;14.73;13.23;;;;;;;12.31;100.00;100574.47;6216682;23;20245;-81
2022/11/13 11:00:49;;;;;;;14.13;12.63;;;;;;;12.31;100.00;100574.47;6194408;23;20162;-81
2022/11/13 11:03:34;;;;;;;14.87;12.10;;;;;;;12.31;100.00;100568.25;6216016;23;20205;-82
2022/11/13 11:06:30;;;;;;;13.00;11.70;;;;;;;12.32;100.00;100559.97;6220380;23;20589;-82
2022/11/13 11:09:37;;;;;;;13.63;12.13;;;;;;;12.27;100.00;100559.75;6246722;23;20160;-81
2022/11/13 11:12:23;;;;;;;14.50;13.00;;;;;;;12.25;100.00;100555.66;6246983;23;20597;-81
2022/11/13 11:15:21;;;;;;;14.97;13.50;;;;;;;12.25;100.00;100550.28;6248272;23;20165;-81
2022/11/13 11:18:16;;;;;;;13.60;12.20;;;;;;;12.27;100.00;100556.28;6223720;23;20200;-81
2022/11/13 11:21:07;;;;;;;16.60;15.00;;;;;;;12.47;100.00;100546.31;6245821;23;20164;-83
2022/11/13 11:24:06;;;;;;;19.80;17.90;;;;;;;12.61;100.00;100539.88;6222163;23;20231;-82
2022/11/13 11:27:02;;;;;;;10.93;9.77;;;;;;;12.77;100.00;100549.34;6244677;23;20741;-81
2022/11/13 11:29:51;;;;;;;10.50;9.40;;;;;;;12.87;100.00;100535.47;6240962;23;20247;-82
2022/11/13 11:32:54;;;;;;;11.77;10.57;;;;;;;12.99;100.00;100536.44;6242343;23;20659;-82
2022/11/13 11:35:44;;;;;;;13.23;11.93;;;;;;;12.96;100.00;100532.31;6244406;23;20167;-84
2022/11/13 11:38:39;;;;;;;12.30;11.10;;;;;;;12.89;100.00;100544.94;6222097;23;20165;-83
2022/11/13 11:41:45;;;;;;;14.17;12.70;;;;;;;12.95;100.00;100533.34;6221673;23;20208;-82
2022/11/13 11:45:00;;;;;;;14.47;12.97;;;;;;;12.94;100.00;100528.16;6244193;23;20203;-83
2022/11/13 11:47:46;;;;;;;13.63;12.23;;;;;;;12.89;100.00;100518.06;6243994;23;20161;-83
2022/11/13 11:50:45;;;;;;;13.67;12.27;;;;;;;12.93;100.00;100510.38;6222001;23;20162;-84
2022/11/13 11:53:44;;;;;;;12.90;11.27;;;;;;;13.01;100.00;100499.41;6244349;23;20209;-82
2022/11/13 11:56:39;;;;;;;12.60;11.07;;;;;;;13.06;100.00;100504.97;6244110;23;20178;-82
2022/11/13 11:59:38;;;;;;;12.23;10.97;;;;;;;13.11;100.00;100492.53;6244352;23;20167;-82
2022/11/13 12:02:40;;;;;;;11.93;10.73;;;;;;;13.21;100.00;100494.75;6221876;23;20166;-82
2022/11/13 12:05:46;;;;;;;12.23;11.03;;;;;;;13.22;100.00;100496.41;6243936;23;20241;-82
2022/11/13 12:08:40;;;;;;;11.30;10.20;;;;;;;13.27;100.00;100493.91;6183734;23;20197;-83
2022/11/13 12:11:34;;;;;;;13.13;11.73;;;;;;;13.20;100.00;100485.84;6183604;23;20637;-84
2022/11/13 12:14:41;;;;;;;12.70;11.47;;;;;;;13.15;100.00;100488.38;6182499;23;20307;-82
2022/11/13 12:17:35;;;;;;;13.73;12.33;;;;;;;13.16;100.00;100487.31;6182777;23;20241;-82
2022/11/13 12:20:34;;;;;;;13.20;11.23;;;;;;;13.10;100.00;100479.28;6182879;23;20166;-83
2022/11/13 12:23:29;;;;;;;12.97;11.67;;;;;;;12.96;100.00;100469.63;6184854;23;20242;-82
2022/11/13 12:26:22;;;;;;;13.37;11.97;;;;;;;12.94;100.00;100477.06;6184210;23;20213;-82
2022/11/13 12:29:16;;;;;;;14.43;12.27;;;;;;;13.00;100.00;100474.34;6183002;23;20245;-82
2022/11/13 12:32:27;;;;;;;12.77;11.47;;;;;;;12.72;100.00;100472.00;6184504;23;20163;-82
2022/11/13 12:35:22;;;;;;;12.63;11.33;;;;;;;12.80;100.00;100466.38;6183503;23;20202;-84
2022/11/13 12:38:20;;;;;;;14.00;12.57;;;;;;;12.79;100.00;100462.03;6180223;23;20159;-82
2022/11/13 12:41:15;;;;;;;14.17;12.67;;;;;;;12.77;100.00;100457.91;6181675;23;20215;-82
2022/11/13 12:44:19;;;;;;;15.10;13.07;;;;;;;12.77;100.00;100463.31;6184790;23;20280;-82
2022/11/13 12:47:06;;;;;;;14.33;12.83;;;;;;;12.77;100.00;100452.53;6184787;23;20231;-82